createdAt,value
2017-03-30T00:00:55.113Z,1016.84
2017-03-30T00:01:55.102Z,1016.84
2017-03-30T00:02:55.090Z,1016.84
2017-03-30T00:03:55.075Z,1016.9
2017-03-30T00:04:55.062Z,1016.86
2017-03-30T00:05:55.050Z,1016.86
2017-03-30T00:06:55.038Z,1016.85
2017-03-30T00:07:55.026Z,1016.88
2017-03-30T00:08:55.012Z,1016.85
2017-03-30T00:09:55.000Z,1016.87
2017-03-30T00:10:55.036Z,1016.89
2017-03-30T00:11:54.973Z,1016.85
2017-03-30T00:12:54.961Z,1016.86
2017-03-30T00:13:54.948Z,1016.86
2017-03-30T00:14:54.935Z,1016.85
2017-03-30T00:15:54.923Z,1016.9
2017-03-30T00:16:54.910Z,1016.85
2017-03-30T00:17:54.896Z,1016.85
2017-03-30T00:18:54.884Z,1016.85
2017-03-30T00:19:54.871Z,1016.86
2017-03-30T00:20:54.857Z,1016.87
2017-03-30T00:21:54.846Z,1016.88
2017-03-30T00:22:54.832Z,1016.84
2017-03-30T00:23:54.821Z,1016.85
2017-03-30T00:24:54.807Z,1016.84
2017-03-30T00:25:54.794Z,1016.83
2017-03-30T00:26:54.783Z,1016.79
2017-03-30T00:27:54.770Z,1016.83
2017-03-30T00:28:54.758Z,1016.83
2017-03-30T00:29:54.744Z,1016.83
2017-03-30T00:30:54.732Z,1016.78
2017-03-30T00:31:54.718Z,1016.79
2017-03-30T00:32:54.705Z,1016.79
2017-03-30T00:33:54.692Z,1016.77
2017-03-30T00:34:54.681Z,1016.83
2017-03-30T00:35:54.667Z,1016.81
2017-03-30T00:36:54.653Z,1016.78
2017-03-30T00:37:54.641Z,1016.76
2017-03-30T00:38:54.830Z,1016.77
2017-03-30T00:39:54.617Z,1016.76
2017-03-30T00:40:54.603Z,1016.75
2017-03-30T00:41:54.590Z,1016.77
2017-03-30T00:42:54.581Z,1016.8
2017-03-30T00:43:54.564Z,1016.77
2017-03-30T00:44:54.552Z,1016.78
2017-03-30T00:45:54.538Z,1016.77
2017-03-30T00:46:54.526Z,1016.76
2017-03-30T00:47:54.514Z,1016.75
2017-03-30T00:48:54.502Z,1016.7
2017-03-30T00:49:54.487Z,1016.72
2017-03-30T00:50:54.475Z,1016.7
2017-03-30T00:51:54.463Z,1016.71
2017-03-30T00:52:54.450Z,1016.71
2017-03-30T00:53:54.436Z,1016.75
2017-03-30T00:54:54.449Z,1016.72
2017-03-30T00:55:54.411Z,1016.74
2017-03-30T00:56:54.399Z,1016.74
2017-03-30T00:57:54.386Z,1016.76
2017-03-30T00:58:54.374Z,1016.75
2017-03-30T00:59:54.359Z,1016.77
2017-03-30T01:00:54.348Z,1016.75
2017-03-30T01:01:54.337Z,1016.73
2017-03-30T01:02:54.323Z,1016.75
2017-03-30T01:03:54.310Z,1016.74
2017-03-30T01:04:54.296Z,1016.72
2017-03-30T01:05:54.285Z,1016.74
2017-03-30T01:06:54.272Z,1016.73
2017-03-30T01:07:54.257Z,1016.75
2017-03-30T01:08:54.244Z,1016.76
2017-03-30T01:09:54.233Z,1016.76
2017-03-30T01:10:54.218Z,1016.78
2017-03-30T01:11:54.211Z,1016.78
2017-03-30T01:12:54.193Z,1016.76
2017-03-30T01:13:54.179Z,1016.76
2017-03-30T01:14:54.166Z,1016.74
2017-03-30T01:15:54.153Z,1016.71
2017-03-30T01:16:54.141Z,1016.72
2017-03-30T01:17:54.127Z,1016.73
2017-03-30T01:18:54.116Z,1016.75
2017-03-30T01:19:54.100Z,1016.75
2017-03-30T01:20:54.090Z,1016.72
2017-03-30T01:21:54.074Z,1016.69
2017-03-30T01:22:54.062Z,1016.69
2017-03-30T01:23:54.047Z,1016.68
2017-03-30T01:24:54.034Z,1016.73
2017-03-30T01:25:54.021Z,1016.71
2017-03-30T01:26:54.009Z,1016.71
2017-03-30T01:27:53.997Z,1016.74
2017-03-30T01:28:53.985Z,1016.7
2017-03-30T01:29:53.969Z,1016.7
2017-03-30T01:30:53.957Z,1016.7
2017-03-30T01:31:53.944Z,1016.7
2017-03-30T01:32:53.930Z,1016.67
2017-03-30T01:33:53.917Z,1016.71
2017-03-30T01:34:53.904Z,1016.7
2017-03-30T01:35:53.891Z,1016.72
2017-03-30T01:36:53.878Z,1016.7
2017-03-30T01:37:53.868Z,1016.65
2017-03-30T01:38:53.851Z,1016.67
2017-03-30T01:39:53.837Z,1016.62
2017-03-30T01:40:53.826Z,1016.65
2017-03-30T01:41:53.813Z,1016.67
2017-03-30T01:42:53.801Z,1016.69
2017-03-30T01:43:53.787Z,1016.64
2017-03-30T01:44:53.775Z,1016.66
2017-03-30T01:45:53.764Z,1016.63
2017-03-30T01:46:53.749Z,1016.63
2017-03-30T01:47:53.733Z,1016.68
2017-03-30T01:48:53.722Z,1016.63
2017-03-30T01:49:53.709Z,1016.68
2017-03-30T01:50:53.700Z,1016.64
2017-03-30T01:51:53.682Z,1016.63
2017-03-30T01:52:53.672Z,1016.64
2017-03-30T01:53:53.658Z,1016.63
2017-03-30T01:54:53.645Z,1016.61
2017-03-30T01:55:53.631Z,1016.61
2017-03-30T01:56:53.619Z,1016.61
2017-03-30T01:57:53.606Z,1016.59
2017-03-30T01:58:53.593Z,1016.62
2017-03-30T01:59:53.581Z,1016.62
2017-03-30T02:00:53.569Z,1016.63
2017-03-30T02:01:53.554Z,1016.7
2017-03-30T02:02:53.540Z,1016.65
2017-03-30T02:03:53.529Z,1016.65
2017-03-30T02:04:53.516Z,1016.66
2017-03-30T02:05:53.503Z,1016.62
2017-03-30T02:06:53.490Z,1016.68
2017-03-30T02:07:53.480Z,1016.63
2017-03-30T02:08:53.463Z,1016.67
2017-03-30T02:09:53.451Z,1016.66
2017-03-30T02:10:53.438Z,1016.68
2017-03-30T02:11:53.427Z,1016.7
2017-03-30T02:12:53.411Z,1016.73
2017-03-30T02:13:53.399Z,1016.72
2017-03-30T02:14:53.389Z,1016.7
2017-03-30T02:15:53.375Z,1016.71
2017-03-30T02:16:53.362Z,1016.7
2017-03-30T02:17:53.351Z,1016.71
2017-03-30T02:18:53.335Z,1016.73
2017-03-30T02:19:53.323Z,1016.71
2017-03-30T02:20:53.313Z,1016.72
2017-03-30T02:21:53.298Z,1016.71
2017-03-30T02:22:53.286Z,1016.71
2017-03-30T02:23:53.271Z,1016.72
2017-03-30T02:24:53.258Z,1016.72
2017-03-30T02:25:53.245Z,1016.74
2017-03-30T02:26:53.234Z,1016.71
2017-03-30T02:27:53.222Z,1016.7
2017-03-30T02:28:53.208Z,1016.69
2017-03-30T02:29:53.194Z,1016.71
2017-03-30T02:30:53.183Z,1016.73
2017-03-30T02:31:53.168Z,1016.72
2017-03-30T02:32:53.157Z,1016.71
2017-03-30T02:33:53.145Z,1016.74
2017-03-30T02:34:53.130Z,1016.71
2017-03-30T02:35:53.117Z,1016.72
2017-03-30T02:36:53.106Z,1016.76
2017-03-30T02:37:53.092Z,1016.72
2017-03-30T02:38:53.281Z,1016.71
2017-03-30T02:39:53.067Z,1016.73
2017-03-30T02:40:53.057Z,1016.73
2017-03-30T02:41:53.042Z,1016.75
2017-03-30T02:42:53.031Z,1016.73
2017-03-30T02:43:53.015Z,1016.74
2017-03-30T02:44:53.005Z,1016.74
2017-03-30T02:45:52.992Z,1016.72
2017-03-30T02:46:52.977Z,1016.72
2017-03-30T02:47:52.966Z,1016.77
2017-03-30T02:48:52.952Z,1016.72
2017-03-30T02:49:52.938Z,1016.69
2017-03-30T02:50:52.926Z,1016.71
2017-03-30T02:51:52.913Z,1016.72
2017-03-30T02:52:52.899Z,1016.74
2017-03-30T02:53:52.888Z,1016.72
2017-03-30T02:54:52.874Z,1016.7
2017-03-30T02:55:52.862Z,1016.7
2017-03-30T02:56:52.848Z,1016.72
2017-03-30T02:57:52.838Z,1016.76
2017-03-30T02:58:52.823Z,1016.74
2017-03-30T02:59:52.808Z,1016.76
2017-03-30T03:00:52.815Z,1016.72
2017-03-30T03:01:52.787Z,1016.76
2017-03-30T03:02:52.771Z,1016.72
2017-03-30T03:03:52.767Z,1016.8
2017-03-30T03:04:52.747Z,1016.75
2017-03-30T03:05:52.733Z,1016.78
2017-03-30T03:06:52.719Z,1016.8
2017-03-30T03:07:52.707Z,1016.75
2017-03-30T03:08:52.695Z,1016.76
2017-03-30T03:09:52.683Z,1016.77
2017-03-30T03:10:52.671Z,1016.72
2017-03-30T03:11:52.657Z,1016.75
2017-03-30T03:12:52.645Z,1016.73
2017-03-30T03:13:52.632Z,1016.78
2017-03-30T03:14:52.616Z,1016.73
2017-03-30T03:15:52.604Z,1016.74
2017-03-30T03:16:52.592Z,1016.76
2017-03-30T03:17:52.579Z,1016.75
2017-03-30T03:18:52.568Z,1016.75
2017-03-30T03:19:52.552Z,1016.71
2017-03-30T03:20:52.541Z,1016.76
2017-03-30T03:21:52.527Z,1016.75
2017-03-30T03:22:52.517Z,1016.75
2017-03-30T03:23:52.504Z,1016.72
2017-03-30T03:24:52.490Z,1016.7
2017-03-30T03:25:52.477Z,1016.72
2017-03-30T03:26:52.466Z,1016.73
2017-03-30T03:27:52.454Z,1016.7
2017-03-30T03:28:52.439Z,1016.72
2017-03-30T03:29:52.426Z,1016.72
2017-03-30T03:30:52.415Z,1016.7
2017-03-30T03:31:52.400Z,1016.72
2017-03-30T03:32:52.389Z,1016.71
2017-03-30T03:33:52.375Z,1016.74
2017-03-30T03:34:52.363Z,1016.73
2017-03-30T03:35:52.352Z,1016.75
2017-03-30T03:36:52.337Z,1016.71
2017-03-30T03:37:52.327Z,1016.71
2017-03-30T03:38:52.311Z,1016.72
2017-03-30T03:39:52.300Z,1016.73
2017-03-30T03:40:52.287Z,1016.73
2017-03-30T03:41:52.275Z,1016.73
2017-03-30T03:42:52.263Z,1016.72
2017-03-30T03:43:52.248Z,1016.71
2017-03-30T03:44:52.241Z,1016.74
2017-03-30T03:45:52.227Z,1016.73
2017-03-30T03:46:52.213Z,1016.71
2017-03-30T03:47:52.201Z,1016.74
2017-03-30T03:48:52.186Z,1016.71
2017-03-30T03:49:52.174Z,1016.71
2017-03-30T03:50:52.163Z,1016.72
2017-03-30T03:51:52.147Z,1016.72
2017-03-30T03:52:52.135Z,1016.72
2017-03-30T03:53:52.123Z,1016.72
2017-03-30T03:54:52.108Z,1016.69
2017-03-30T03:55:52.097Z,1016.7
2017-03-30T03:56:52.083Z,1016.7
2017-03-30T03:57:52.071Z,1016.69
2017-03-30T03:58:52.060Z,1016.7
2017-03-30T03:59:52.047Z,1016.72
2017-03-30T04:00:52.033Z,1016.72
2017-03-30T04:01:52.021Z,1016.68
2017-03-30T04:02:52.007Z,1016.68
2017-03-30T04:03:51.995Z,1016.66
2017-03-30T04:04:51.983Z,1016.66
2017-03-30T04:05:51.970Z,1016.67
2017-03-30T04:06:51.957Z,1016.67
2017-03-30T04:07:51.943Z,1016.68
2017-03-30T04:08:51.936Z,1016.67
2017-03-30T04:09:51.919Z,1016.69
2017-03-30T04:10:51.907Z,1016.68
2017-03-30T04:11:51.893Z,1016.69
2017-03-30T04:12:51.880Z,1016.71
2017-03-30T04:13:51.868Z,1016.7
2017-03-30T04:14:51.856Z,1016.67
2017-03-30T04:15:51.846Z,1016.69
2017-03-30T04:16:51.830Z,1016.68
2017-03-30T04:17:51.816Z,1016.66
2017-03-30T04:18:51.804Z,1016.68
2017-03-30T04:19:51.792Z,1016.67
2017-03-30T04:20:51.785Z,1016.67
2017-03-30T04:21:51.767Z,1016.67
2017-03-30T04:22:51.755Z,1016.7
2017-03-30T04:23:51.739Z,1016.63
2017-03-30T04:24:51.730Z,1016.66
2017-03-30T04:25:51.719Z,1016.65
2017-03-30T04:26:51.702Z,1016.61
2017-03-30T04:27:51.690Z,1016.62
2017-03-30T04:28:51.677Z,1016.66
2017-03-30T04:29:51.666Z,1016.61
2017-03-30T04:30:51.652Z,1016.59
2017-03-30T04:31:51.638Z,1016.62
2017-03-30T04:32:51.625Z,1016.61
2017-03-30T04:33:51.612Z,1016.61
2017-03-30T04:34:51.599Z,1016.6
2017-03-30T04:35:51.587Z,1016.61
2017-03-30T04:36:51.575Z,1016.6
2017-03-30T04:37:51.561Z,1016.63
2017-03-30T04:38:51.556Z,1016.62
2017-03-30T04:39:51.536Z,1016.64
2017-03-30T04:40:51.524Z,1016.63
2017-03-30T04:41:51.510Z,1016.62
2017-03-30T04:42:51.497Z,1016.64
2017-03-30T04:43:51.486Z,1016.58
2017-03-30T04:44:51.472Z,1016.58
2017-03-30T04:45:51.460Z,1016.61
2017-03-30T04:46:51.446Z,1016.6
2017-03-30T04:47:51.436Z,1016.6
2017-03-30T04:48:51.420Z,1016.6
2017-03-30T04:49:51.407Z,1016.6
2017-03-30T04:50:51.397Z,1016.59
2017-03-30T04:51:51.381Z,1016.64
2017-03-30T04:52:51.370Z,1016.61
2017-03-30T04:53:51.355Z,1016.63
2017-03-30T04:54:51.344Z,1016.62
2017-03-30T04:55:51.331Z,1016.63
2017-03-30T04:56:51.317Z,1016.63
2017-03-30T04:57:51.305Z,1016.6
2017-03-30T04:58:51.293Z,1016.62
2017-03-30T04:59:51.281Z,1016.64
2017-03-30T05:00:51.269Z,1016.63
2017-03-30T05:01:51.253Z,1016.62
2017-03-30T05:02:51.241Z,1016.63
2017-03-30T05:03:51.227Z,1016.63
2017-03-30T05:04:51.215Z,1016.6
2017-03-30T05:05:51.202Z,1016.6
2017-03-30T05:06:51.190Z,1016.6
2017-03-30T05:07:51.175Z,1016.63
2017-03-30T05:08:51.165Z,1016.63
2017-03-30T05:09:51.149Z,1016.65
2017-03-30T05:10:51.138Z,1016.6
2017-03-30T05:11:51.124Z,1016.63
2017-03-30T05:12:51.112Z,1016.64
2017-03-30T05:13:51.100Z,1016.63
2017-03-30T05:14:51.086Z,1016.63
2017-03-30T05:15:51.071Z,1016.65
2017-03-30T05:16:51.060Z,1016.59
2017-03-30T05:17:51.047Z,1016.61
2017-03-30T05:18:51.032Z,1016.6
2017-03-30T05:19:51.021Z,1016.56
2017-03-30T05:20:51.008Z,1016.58
2017-03-30T05:21:51.009Z,1016.56
2017-03-30T05:22:50.978Z,1016.61
2017-03-30T05:23:50.966Z,1016.56
2017-03-30T05:24:50.954Z,1016.59
2017-03-30T05:25:50.942Z,1016.62
2017-03-30T05:26:50.927Z,1016.59
2017-03-30T05:27:50.916Z,1016.57
2017-03-30T05:28:50.903Z,1016.56
2017-03-30T05:29:50.889Z,1016.55
2017-03-30T05:30:50.875Z,1016.55
2017-03-30T05:31:50.862Z,1016.55
2017-03-30T05:32:50.850Z,1016.54
2017-03-30T05:33:50.837Z,1016.53
2017-03-30T05:34:50.825Z,1016.58
2017-03-30T05:35:50.815Z,1016.53
2017-03-30T05:36:50.799Z,1016.55
2017-03-30T05:37:50.784Z,1016.49
2017-03-30T05:38:50.770Z,1016.51
2017-03-30T05:39:50.758Z,1016.55
2017-03-30T05:40:50.746Z,1016.62
2017-03-30T05:41:50.731Z,1016.57
2017-03-30T05:42:50.720Z,1016.58
2017-03-30T05:43:50.707Z,1016.55
2017-03-30T05:44:50.723Z,1016.58
2017-03-30T05:45:50.682Z,1016.58
2017-03-30T05:46:50.666Z,1016.55
2017-03-30T05:47:50.654Z,1016.6
2017-03-30T05:48:50.640Z,1016.61
2017-03-30T05:49:50.632Z,1016.63
2017-03-30T05:50:50.616Z,1016.61
2017-03-30T05:51:50.601Z,1016.62
2017-03-30T05:52:50.590Z,1016.62
2017-03-30T05:53:50.577Z,1016.59
2017-03-30T05:54:50.566Z,1016.65
2017-03-30T05:55:50.551Z,1016.6
2017-03-30T05:56:50.538Z,1016.63
2017-03-30T05:57:50.525Z,1016.64
2017-03-30T05:58:50.511Z,1016.65
2017-03-30T05:59:50.499Z,1016.63
2017-03-30T06:00:50.487Z,1016.66
2017-03-30T06:01:50.473Z,1016.67
2017-03-30T06:02:50.459Z,1016.65
2017-03-30T06:03:50.447Z,1016.66
2017-03-30T06:04:50.435Z,1016.67
2017-03-30T06:05:50.421Z,1016.66
2017-03-30T06:06:50.408Z,1016.69
2017-03-30T06:07:50.396Z,1016.67
2017-03-30T06:08:50.383Z,1016.68
2017-03-30T06:09:50.369Z,1016.7
2017-03-30T06:10:50.356Z,1016.68
2017-03-30T06:11:50.344Z,1016.69
2017-03-30T06:12:50.334Z,1016.68
2017-03-30T06:13:50.319Z,1016.72
2017-03-30T06:14:50.307Z,1016.71
2017-03-30T06:15:50.295Z,1016.7
2017-03-30T06:16:50.281Z,1016.71
2017-03-30T06:17:50.269Z,1016.73
2017-03-30T06:18:50.259Z,1016.75
2017-03-30T06:19:50.243Z,1016.72
2017-03-30T06:20:50.230Z,1016.71
2017-03-30T06:21:50.217Z,1016.76
2017-03-30T06:22:50.206Z,1016.79
2017-03-30T06:23:50.195Z,1016.79
2017-03-30T06:24:50.178Z,1016.79
2017-03-30T06:25:50.167Z,1016.78
2017-03-30T06:26:50.157Z,1016.8
2017-03-30T06:27:50.143Z,1016.79
2017-03-30T06:28:50.128Z,1016.79
2017-03-30T06:29:50.116Z,1016.78
2017-03-30T06:30:50.103Z,1016.83
2017-03-30T06:31:50.090Z,1016.74
2017-03-30T06:32:50.078Z,1016.77
2017-03-30T06:33:50.066Z,1016.8
2017-03-30T06:34:50.054Z,1016.78
2017-03-30T06:35:50.041Z,1016.76
2017-03-30T06:36:50.030Z,1016.73
2017-03-30T06:37:50.015Z,1016.73
2017-03-30T06:38:50.007Z,1016.75
2017-03-30T06:39:49.992Z,1016.77
2017-03-30T06:40:49.978Z,1016.77
2017-03-30T06:41:49.969Z,1016.76
2017-03-30T06:42:49.956Z,1016.76
2017-03-30T06:43:49.943Z,1016.76
2017-03-30T06:44:49.930Z,1016.81
2017-03-30T06:45:49.920Z,1016.76
2017-03-30T06:46:49.905Z,1016.79
2017-03-30T06:47:49.893Z,1016.81
2017-03-30T06:48:49.882Z,1016.78
2017-03-30T06:49:49.871Z,1016.83
2017-03-30T06:50:49.857Z,1016.8
2017-03-30T06:51:49.845Z,1016.79
2017-03-30T06:52:49.836Z,1016.78
2017-03-30T06:53:49.821Z,1016.78
2017-03-30T06:54:49.809Z,1016.76
2017-03-30T06:55:49.809Z,1016.78
2017-03-30T06:56:49.784Z,1016.76
2017-03-30T06:57:49.772Z,1016.78
2017-03-30T06:58:49.761Z,1016.8
2017-03-30T06:59:49.748Z,1016.81
2017-03-30T07:00:49.738Z,1016.79
2017-03-30T07:01:49.724Z,1016.8
2017-03-30T07:02:49.717Z,1016.78
2017-03-30T07:03:49.702Z,1016.78
2017-03-30T07:04:49.750Z,1016.78
2017-03-30T07:05:49.678Z,1016.8
2017-03-30T07:06:49.666Z,1016.81
2017-03-30T07:07:49.658Z,1016.81
2017-03-30T07:08:49.642Z,1016.8
2017-03-30T07:09:49.652Z,1016.86
2017-03-30T07:10:49.620Z,1016.78
2017-03-30T07:11:49.609Z,1016.83
2017-03-30T07:12:49.613Z,1016.82
2017-03-30T07:13:49.584Z,1016.8
2017-03-30T07:14:49.573Z,1016.84
2017-03-30T07:15:49.572Z,1016.79
2017-03-30T07:16:49.550Z,1016.78
2017-03-30T07:17:49.538Z,1016.79
2017-03-30T07:18:49.530Z,1016.77
2017-03-30T07:19:49.514Z,1016.78
2017-03-30T07:20:49.505Z,1016.77
2017-03-30T07:21:49.494Z,1016.8
2017-03-30T07:22:49.482Z,1016.75
2017-03-30T07:23:49.474Z,1016.75
2017-03-30T07:24:49.461Z,1016.77
2017-03-30T07:25:49.450Z,1016.75
2017-03-30T07:26:49.438Z,1016.73
2017-03-30T07:27:49.434Z,1016.75
2017-03-30T07:28:49.417Z,1016.75
2017-03-30T07:29:49.407Z,1016.72
2017-03-30T07:30:49.394Z,1016.72
2017-03-30T07:31:49.385Z,1016.74
2017-03-30T07:32:49.375Z,1016.69
2017-03-30T07:33:49.384Z,1016.74
2017-03-30T07:34:49.350Z,1016.7
2017-03-30T07:35:49.340Z,1016.72
2017-03-30T07:36:49.329Z,1016.74
2017-03-30T07:37:49.319Z,1016.73
2017-03-30T07:38:49.307Z,1016.77
2017-03-30T07:39:49.297Z,1016.75
2017-03-30T07:40:49.287Z,1016.76
2017-03-30T07:41:49.276Z,1016.75
2017-03-30T07:42:49.265Z,1016.8
2017-03-30T07:43:49.255Z,1016.79
2017-03-30T07:44:49.248Z,1016.74
2017-03-30T07:45:49.234Z,1016.78
2017-03-30T07:46:49.223Z,1016.77
2017-03-30T07:47:49.263Z,1016.77
2017-03-30T07:48:49.203Z,1016.79
2017-03-30T07:49:49.192Z,1016.76
2017-03-30T07:50:49.182Z,1016.79
2017-03-30T07:51:49.171Z,1016.84
2017-03-30T07:52:49.160Z,1016.82
2017-03-30T07:53:49.152Z,1016.85
2017-03-30T07:54:49.163Z,1016.84
2017-03-30T07:55:49.130Z,1016.82
2017-03-30T07:56:49.130Z,1016.8
2017-03-30T07:57:49.109Z,1016.81
2017-03-30T07:58:49.097Z,1016.81
2017-03-30T07:59:49.090Z,1016.79
2017-03-30T08:00:49.075Z,1016.81
2017-03-30T08:01:49.071Z,1016.79
2017-03-30T08:02:49.056Z,1016.78
2017-03-30T08:03:49.044Z,1016.78
2017-03-30T08:04:49.034Z,1016.82
2017-03-30T08:05:49.023Z,1016.85
2017-03-30T08:06:49.014Z,1016.87
2017-03-30T08:07:49.005Z,1016.87
2017-03-30T08:08:48.993Z,1016.92
2017-03-30T08:09:48.983Z,1016.92
2017-03-30T08:10:48.972Z,1016.91
2017-03-30T08:11:48.965Z,1016.9
2017-03-30T08:12:48.953Z,1016.94
2017-03-30T08:13:48.944Z,1016.99
2017-03-30T08:14:48.934Z,1016.99
2017-03-30T08:15:48.924Z,1016.99
2017-03-30T08:16:48.915Z,1017
2017-03-30T08:17:48.904Z,1017
2017-03-30T08:18:48.894Z,1016.96
2017-03-30T08:19:48.886Z,1017.05
2017-03-30T08:20:48.876Z,1016.97
2017-03-30T08:21:48.866Z,1016.97
2017-03-30T08:22:48.856Z,1017.02
2017-03-30T08:23:48.846Z,1017
2017-03-30T08:24:48.837Z,1017
2017-03-30T08:25:48.826Z,1017
2017-03-30T08:26:48.818Z,1016.98
2017-03-30T08:27:48.808Z,1016.99
2017-03-30T08:28:48.800Z,1016.99
2017-03-30T08:29:48.794Z,1017.03
2017-03-30T08:30:48.780Z,1017.04
2017-03-30T08:31:48.772Z,1017.21
2017-03-30T08:32:48.760Z,1017.31
2017-03-30T08:33:48.751Z,1017.32
2017-03-30T08:34:48.743Z,1017.3
2017-03-30T08:35:48.735Z,1017.31
2017-03-30T08:36:48.727Z,1017.41
2017-03-30T08:37:48.716Z,1017.37
2017-03-30T08:38:48.708Z,1017.24
2017-03-30T08:39:48.905Z,1017.18
2017-03-30T08:40:48.693Z,1017.27
2017-03-30T08:41:48.690Z,1017.31
2017-03-30T08:42:48.681Z,1017.38
2017-03-30T08:43:48.673Z,1017.43
2017-03-30T08:44:48.669Z,1017.26
2017-03-30T08:45:48.663Z,1017.27
2017-03-30T08:46:48.656Z,1017.31
2017-03-30T08:47:48.649Z,1017.25
2017-03-30T08:48:48.644Z,1017.25
2017-03-30T08:49:48.639Z,1017.34
2017-03-30T08:50:48.631Z,1017.33
2017-03-30T08:51:48.626Z,1017.29
2017-03-30T08:52:48.621Z,1017.26
2017-03-30T08:53:48.617Z,1017.26
2017-03-30T08:54:48.611Z,1017.32
2017-03-30T08:55:48.606Z,1017.26
2017-03-30T08:56:48.602Z,1017.24
2017-03-30T08:57:48.597Z,1017.23
2017-03-30T08:58:48.592Z,1017.15
2017-03-30T08:59:48.588Z,1017.12
2017-03-30T09:00:48.583Z,1017.08
2017-03-30T09:01:48.578Z,1017.13
2017-03-30T09:02:48.573Z,1017.15
2017-03-30T09:03:48.568Z,1017.11
2017-03-30T09:04:48.566Z,1017.06
2017-03-30T09:05:48.560Z,1017.02
2017-03-30T09:06:48.554Z,1017.03
2017-03-30T09:07:48.551Z,1017
2017-03-30T09:08:48.593Z,1017.02
2017-03-30T09:09:48.541Z,1016.99
2017-03-30T09:10:48.536Z,1017.03
2017-03-30T09:11:48.533Z,1017.02
2017-03-30T09:12:48.526Z,1017.01
2017-03-30T09:13:48.520Z,1016.95
2017-03-30T09:14:48.516Z,1016.98
2017-03-30T09:15:48.510Z,1017
2017-03-30T09:16:48.506Z,1017
2017-03-30T09:17:48.500Z,1016.97
2017-03-30T09:18:48.495Z,1016.92
2017-03-30T09:19:48.488Z,1016.99
2017-03-30T09:20:48.483Z,1017
2017-03-30T09:21:48.479Z,1016.97
2017-03-30T09:22:48.474Z,1016.97
2017-03-30T09:23:48.465Z,1017.04
2017-03-30T09:24:48.461Z,1017.04
2017-03-30T09:25:48.457Z,1016.9
2017-03-30T09:26:48.503Z,1016.95
2017-03-30T09:27:48.443Z,1016.9
2017-03-30T09:28:48.437Z,1016.92
2017-03-30T09:29:48.433Z,1016.87
2017-03-30T09:30:48.425Z,1016.89
2017-03-30T09:31:48.422Z,1016.9
2017-03-30T09:32:48.417Z,1016.91
2017-03-30T09:33:48.412Z,1016.94
2017-03-30T09:34:48.405Z,1016.92
2017-03-30T09:35:48.397Z,1016.9
2017-03-30T09:36:48.393Z,1016.92
2017-03-30T09:37:48.386Z,1016.93
2017-03-30T09:38:48.380Z,1016.9
2017-03-30T09:39:48.374Z,1016.9
2017-03-30T09:40:48.367Z,1016.89
2017-03-30T09:41:48.363Z,1016.86
2017-03-30T09:42:48.354Z,1016.97
2017-03-30T09:43:48.352Z,1016.93
2017-03-30T09:44:48.342Z,1016.89
2017-03-30T09:45:48.336Z,1016.86
2017-03-30T09:46:48.329Z,1016.88
2017-03-30T09:47:48.323Z,1016.89
2017-03-30T09:48:48.319Z,1016.9
2017-03-30T09:49:48.313Z,1016.97
2017-03-30T09:50:48.306Z,1016.86
2017-03-30T09:51:48.299Z,1016.86
2017-03-30T09:52:48.294Z,1016.9
2017-03-30T09:53:48.287Z,1016.84
2017-03-30T09:54:48.284Z,1016.77
2017-03-30T09:55:48.277Z,1016.82
2017-03-30T09:56:48.274Z,1016.79
2017-03-30T09:57:48.267Z,1016.74
2017-03-30T09:58:48.263Z,1016.73
2017-03-30T09:59:48.261Z,1016.7
2017-03-30T10:00:48.252Z,1016.7
2017-03-30T10:01:48.248Z,1016.72
2017-03-30T10:02:48.242Z,1016.7
2017-03-30T10:03:48.240Z,1016.68
2017-03-30T10:04:48.234Z,1016.7
2017-03-30T10:05:48.232Z,1016.71
2017-03-30T10:06:48.227Z,1016.76
2017-03-30T10:07:48.220Z,1016.67
2017-03-30T10:08:48.222Z,1016.65
2017-03-30T10:09:48.215Z,1016.65
2017-03-30T10:10:48.208Z,1016.65
2017-03-30T10:11:48.203Z,1016.68
2017-03-30T10:12:48.198Z,1016.67
2017-03-30T10:13:48.197Z,1016.67
2017-03-30T10:14:48.195Z,1016.67
2017-03-30T10:15:48.191Z,1016.67
2017-03-30T10:16:48.183Z,1016.62
2017-03-30T10:17:48.175Z,1016.66
2017-03-30T10:18:48.171Z,1016.6
2017-03-30T10:19:48.167Z,1016.61
2017-03-30T10:20:48.162Z,1016.63
2017-03-30T10:21:48.160Z,1016.61
2017-03-30T10:22:48.153Z,1016.67
2017-03-30T10:23:48.149Z,1016.62
2017-03-30T10:24:48.146Z,1016.63
2017-03-30T10:25:48.140Z,1016.67
2017-03-30T10:26:48.136Z,1016.65
2017-03-30T10:27:48.131Z,1016.73
2017-03-30T10:28:48.127Z,1016.64
2017-03-30T10:29:48.125Z,1016.61
2017-03-30T10:30:48.119Z,1016.62
2017-03-30T10:31:48.114Z,1016.61
2017-03-30T10:32:48.112Z,1016.62
2017-03-30T10:33:48.107Z,1016.67
2017-03-30T10:34:48.105Z,1016.62
2017-03-30T10:35:48.101Z,1016.6
2017-03-30T10:36:48.098Z,1016.65
2017-03-30T10:37:48.094Z,1016.58
2017-03-30T10:38:48.093Z,1016.58
2017-03-30T10:39:48.299Z,1016.56
2017-03-30T10:40:48.086Z,1016.54
2017-03-30T10:41:48.082Z,1016.55
2017-03-30T10:42:48.078Z,1016.51
2017-03-30T10:43:48.075Z,1016.47
2017-03-30T10:44:48.071Z,1016.41
2017-03-30T10:45:48.069Z,1016.41
2017-03-30T10:46:48.069Z,1016.39
2017-03-30T10:47:48.063Z,1016.39
2017-03-30T10:48:48.061Z,1016.37
2017-03-30T10:49:48.060Z,1016.39
2017-03-30T10:50:48.054Z,1016.38
2017-03-30T10:51:48.052Z,1016.48
2017-03-30T10:52:48.050Z,1016.49
2017-03-30T10:53:48.047Z,1016.43
2017-03-30T10:54:48.047Z,1016.41
2017-03-30T10:55:48.045Z,1016.46
2017-03-30T10:56:48.041Z,1016.43
2017-03-30T10:57:48.041Z,1016.18
2017-03-30T10:58:48.036Z,1016.1
2017-03-30T10:59:48.037Z,1016.01
2017-03-30T11:00:48.034Z,1015.95
2017-03-30T11:01:48.033Z,1016
2017-03-30T11:02:48.030Z,1016.08
2017-03-30T11:03:48.030Z,1016
2017-03-30T11:04:48.030Z,1015.98
2017-03-30T11:05:48.053Z,1016.06
2017-03-30T11:06:48.027Z,1015.93
2017-03-30T11:07:48.026Z,1015.88
2017-03-30T11:08:48.025Z,1015.89
2017-03-30T11:09:48.022Z,1015.97
2017-03-30T11:10:48.025Z,1016.01
2017-03-30T11:11:48.023Z,1016.07
2017-03-30T11:12:48.020Z,1016.2
2017-03-30T11:13:48.021Z,1016.2
2017-03-30T11:14:48.020Z,1016.33
2017-03-30T11:16:48.019Z,1016.35
2017-03-30T11:17:48.018Z,1016.33
2017-03-30T11:18:48.019Z,1016.37
2017-03-30T11:19:48.017Z,1016.37
2017-03-30T11:20:48.018Z,1016.42
2017-03-30T11:21:48.018Z,1016.42
2017-03-30T11:22:48.020Z,1016.38
2017-03-30T11:23:48.019Z,1016.45
2017-03-30T11:24:48.018Z,1016.43
2017-03-30T11:25:48.018Z,1016.43
2017-03-30T11:26:48.020Z,1016.4
2017-03-30T11:27:48.019Z,1016.34
2017-03-30T11:28:48.022Z,1016.42
2017-03-30T11:29:48.023Z,1016.36
2017-03-30T11:30:48.022Z,1016.4
2017-03-30T11:31:48.023Z,1016.41
2017-03-30T11:32:48.029Z,1016.36
2017-03-30T11:33:48.025Z,1016.38
2017-03-30T11:34:48.027Z,1016.38
2017-03-30T11:35:48.026Z,1016.32
2017-03-30T11:36:48.026Z,1016.32
2017-03-30T11:37:48.028Z,1016.33
2017-03-30T11:38:48.028Z,1016.35
2017-03-30T11:39:48.031Z,1016.3
2017-03-30T11:40:48.033Z,1016.29
2017-03-30T11:41:48.036Z,1016.31
2017-03-30T11:42:48.036Z,1016.29
2017-03-30T11:43:48.037Z,1016.29
2017-03-30T11:44:48.039Z,1016.31
2017-03-30T11:45:48.044Z,1016.28
2017-03-30T11:46:48.093Z,1016.26
2017-03-30T11:47:48.046Z,1016.25
2017-03-30T11:48:48.048Z,1016.25
2017-03-30T11:49:48.047Z,1016.24
2017-03-30T11:50:48.050Z,1016.27
2017-03-30T11:51:48.052Z,1016.23
2017-03-30T11:52:48.054Z,1016.24
2017-03-30T11:53:48.054Z,1016.22
2017-03-30T11:54:48.057Z,1016.21
2017-03-30T11:55:48.059Z,1016.21
2017-03-30T11:56:48.059Z,1016.19
2017-03-30T11:57:48.061Z,1016.19
2017-03-30T11:58:48.063Z,1016.09
2017-03-30T11:59:48.065Z,1016.1
2017-03-30T12:00:48.065Z,1016.1
2017-03-30T12:01:48.065Z,1016.1
2017-03-30T12:02:48.106Z,1016.09
2017-03-30T12:03:48.070Z,1016.05
2017-03-30T12:04:48.070Z,1016.09
2017-03-30T12:05:48.072Z,1016.1
2017-03-30T12:06:48.071Z,1016.11
2017-03-30T12:07:48.072Z,1016.1
2017-03-30T12:08:48.077Z,1016.11
2017-03-30T12:09:48.075Z,1016.07
2017-03-30T12:10:48.078Z,1016.04